sensor_id;sensor_type;location;lat;lon;timestamp;pressure;altitude;pressure_sealevel;temperature;humidity
74594;BME280;63097;51.872;4.460;2023-04-01T00:00:52;99306.00;;;9.13;100.00
74594;BME280;63097;51.872;4.460;2023-04-01T00:03:18;99312.34;;;9.14;99.67
74594;BME280;63097;51.872;4.460;2023-04-01T00:05:44;99319.28;;;9.06;100.00
74594;BME280;63097;51.872;4.460;2023-04-01T00:08:10;99313.75;;;9.17;99.71
74594;BME280;63097;51.872;4.460;2023-04-01T00:10:35;99314.28;;;9.19;99.75
74594;BME280;63097;51.872;4.460;2023-04-01T00:13:00;99309.03;;;9.12;99.47
74594;BME280;63097;51.872;4.460;2023-04-01T00:15:26;99323.44;;;9.14;99.66
74594;BME280;63097;51.872;4.460;2023-04-01T00:17:54;99317.63;;;9.16;99.70
74594;BME280;63097;51.872;4.460;2023-04-01T00:20:20;99316.25;;;9.13;100.00
74594;BME280;63097;51.872;4.460;2023-04-01T00:22:45;99320.72;;;8.99;100.00
74594;BME280;63097;51.872;4.460;2023-04-01T00:25:11;99330.13;;;9.03;100.00
74594;BME280;63097;51.872;4.460;2023-04-01T00:27:36;99329.28;;;9.12;100.00
74594;BME280;63097;51.872;4.460;2023-04-01T00:30:01;99327.34;;;9.08;100.00
74594;BME280;63097;51.872;4.460;2023-04-01T00:32:27;99333.75;;;8.98;100.00
74594;BME280;63097;51.872;4.460;2023-04-01T00:34:52;99327.63;;;9.01;100.00
74594;BME280;63097;51.872;4.460;2023-04-01T00:37:18;99328.19;;;9.03;100.00
74594;BME280;63097;51.872;4.460;2023-04-01T00:39:44;99325.97;;;9.00;100.00
74594;BME280;63097;51.872;4.460;2023-04-01T00:42:10;99335.66;;;9.03;100.00
74594;BME280;63097;51.872;4.460;2023-04-01T00:44:37;99335.69;;;8.98;100.00
74594;BME280;63097;51.872;4.460;2023-04-01T00:47:03;99339.84;;;9.00;100.00
74594;BME280;63097;51.872;4.460;2023-04-01T00:49:33;99348.44;;;9.04;100.00
74594;BME280;63097;51.872;4.460;2023-04-01T00:52:01;99344.28;;;9.01;100.00
74594;BME280;63097;51.872;4.460;2023-04-01T00:54:28;99348.69;;;8.97;100.00
74594;BME280;63097;51.872;4.460;2023-04-01T00:56:58;99352.31;;;9.08;100.00
74594;BME280;63097;51.872;4.460;2023-04-01T00:59:27;99353.72;;;9.00;100.00
74594;BME280;63097;51.872;4.460;2023-04-01T01:01:54;99363.97;;;9.00;99.98
74594;BME280;63097;51.872;4.460;2023-04-01T01:04:24;99372.00;;;9.06;100.00
74594;BME280;63097;51.872;4.460;2023-04-01T01:06:58;99364.78;;;9.05;99.79
74594;BME280;63097;51.872;4.460;2023-04-01T01:12:25;99370.34;;;9.05;99.96
74594;BME280;63097;51.872;4.460;2023-04-01T01:36:43;99379.22;;;9.02;99.49
74594;BME280;63097;51.872;4.460;2023-04-01T01:39:11;99372.59;;;8.93;99.91
74594;BME280;63097;51.872;4.460;2023-04-01T01:41:38;99378.97;;;8.99;99.88
74594;BME280;63097;51.872;4.460;2023-04-01T01:44:08;99375.88;;;8.95;99.92
74594;BME280;63097;51.872;4.460;2023-04-01T01:46:37;99387.56;;;9.02;100.00
74594;BME280;63097;51.872;4.460;2023-04-01T01:49:05;99391.13;;;9.03;99.79
74594;BME280;63097;51.872;4.460;2023-04-01T01:51:32;99395.03;;;9.02;99.93
74594;BME280;63097;51.872;4.460;2023-04-01T01:53:58;99396.69;;;9.03;99.70
74594;BME280;63097;51.872;4.460;2023-04-01T01:56:26;99392.53;;;9.00;99.61
74594;BME280;63097;51.872;4.460;2023-04-01T01:58:56;99410.56;;;8.93;100.00
74594;BME280;63097;51.872;4.460;2023-04-01T02:01:25;99411.41;;;8.93;100.00
74594;BME280;63097;51.872;4.460;2023-04-01T02:03:52;99408.63;;;9.03;100.00
74594;BME280;63097;51.872;4.460;2023-04-01T02:06:21;99412.50;;;9.02;100.00
74594;BME280;63097;51.872;4.460;2023-04-01T02:08:51;99408.91;;;8.97;100.00
74594;BME280;63097;51.872;4.460;2023-04-01T02:11:22;99420.28;;;9.00;100.00
74594;BME280;63097;51.872;4.460;2023-04-01T02:17:07;99420.25;;;8.95;100.00
74594;BME280;63097;51.872;4.460;2023-04-01T02:19:13;99426.91;;;8.99;100.00
74594;BME280;63097;51.872;4.460;2023-04-01T02:21:39;99432.75;;;9.08;100.00
74594;BME280;63097;51.872;4.460;2023-04-01T02:24:09;99438.84;;;9.00;100.00
74594;BME280;63097;51.872;4.460;2023-04-01T02:26:35;99439.97;;;8.99;100.00
74594;BME280;63097;51.872;4.460;2023-04-01T02:29:01;99444.13;;;9.01;100.00
74594;BME280;63097;51.872;4.460;2023-04-01T02:31:28;99439.13;;;8.98;99.83
74594;BME280;63097;51.872;4.460;2023-04-01T02:33:54;99438.00;;;8.99;99.73
74594;BME280;63097;51.872;4.460;2023-04-01T02:36:20;99434.13;;;8.90;100.00
74594;BME280;63097;51.872;4.460;2023-04-01T02:38:46;99444.13;;;8.96;100.00
74594;BME280;63097;51.872;4.460;2023-04-01T02:41:13;99443.00;;;8.97;100.00
74594;BME280;63097;51.872;4.460;2023-04-01T02:43:38;99444.13;;;8.96;100.00
74594;BME280;63097;51.872;4.460;2023-04-01T02:46:04;99446.06;;;8.91;100.00
74594;BME280;63097;51.872;4.460;2023-04-01T02:48:29;99447.16;;;8.85;100.00
74594;BME280;63097;51.872;4.460;2023-04-01T02:50:54;99454.34;;;8.81;100.00
74594;BME280;63097;51.872;4.460;2023-04-01T02:53:20;99454.09;;;8.87;100.00
74594;BME280;63097;51.872;4.460;2023-04-01T02:55:45;99460.75;;;8.91;100.00
74594;BME280;63097;51.872;4.460;2023-04-01T02:58:11;99464.63;;;8.85;100.00
74594;BME280;63097;51.872;4.460;2023-04-01T03:00:37;99461.03;;;8.90;100.00
74594;BME280;63097;51.872;4.460;2023-04-01T03:03:03;99464.94;;;8.99;100.00
74594;BME280;63097;51.872;4.460;2023-04-01T03:05:28;99464.91;;;8.89;100.00
74594;BME280;63097;51.872;4.460;2023-04-01T03:07:54;99473.50;;;8.87;100.00
74594;BME280;63097;51.872;4.460;2023-04-01T03:10:19;99480.47;;;8.90;100.00
74594;BME280;63097;51.872;4.460;2023-04-01T03:12:44;99481.81;;;8.92;100.00
74594;BME280;63097;51.872;4.460;2023-04-01T03:15:11;99482.09;;;8.91;100.00
74594;BME280;63097;51.872;4.460;2023-04-01T03:17:38;99488.78;;;8.90;100.00
74594;BME280;63097;51.872;4.460;2023-04-01T03:20:03;99491.81;;;8.93;100.00
74594;BME280;63097;51.872;4.460;2023-04-01T03:22:29;99502.63;;;8.95;100.00
74594;BME280;63097;51.872;4.460;2023-04-01T03:24:54;99498.47;;;8.92;100.00
74594;BME280;63097;51.872;4.460;2023-04-01T03:27:19;99503.16;;;8.87;100.00
74594;BME280;63097;51.872;4.460;2023-04-01T03:29:45;99506.78;;;8.92;100.00
74594;BME280;63097;51.872;4.460;2023-04-01T03:32:10;99505.41;;;8.95;100.00
74594;BME280;63097;51.872;4.460;2023-04-01T03:34:35;99514.00;;;8.93;100.00
74594;BME280;63097;51.872;4.460;2023-04-01T03:37:01;99521.50;;;8.98;100.00
74594;BME280;63097;51.872;4.460;2023-04-01T03:39:26;99525.09;;;8.93;100.00
74594;BME280;63097;51.872;4.460;2023-04-01T03:41:52;99530.38;;;9.00;100.00
74594;BME280;63097;51.872;4.460;2023-04-01T03:44:17;99530.38;;;9.00;100.00
74594;BME280;63097;51.872;4.460;2023-04-01T03:46:43;99539.25;;;8.97;100.00
74594;BME280;63097;51.872;4.460;2023-04-01T03:49:09;99539.50;;;8.95;100.00
74594;BME280;63097;51.872;4.460;2023-04-01T03:51:35;99542.28;;;8.90;100.00
74594;BME280;63097;51.872;4.460;2023-04-01T03:54:00;99537.28;;;8.92;100.00
74594;BME280;63097;51.872;4.460;2023-04-01T03:56:26;99548.94;;;8.99;100.00
74594;BME280;63097;51.872;4.460;2023-04-01T03:58:51;99559.50;;;9.02;100.00
74594;BME280;63097;51.872;4.460;2023-04-01T04:01:19;99559.75;;;9.01;100.00
74594;BME280;63097;51.872;4.460;2023-04-01T04:03:44;99557.56;;;9.03;100.00
74594;BME280;63097;51.872;4.460;2023-04-01T04:06:11;99567.56;;;9.09;100.00
74594;BME280;63097;51.872;4.460;2023-04-01T04:08:37;99567.28;;;9.05;100.00
74594;BME280;63097;51.872;4.460;2023-04-01T04:11:03;99582.50;;;9.03;100.00
74594;BME280;63097;51.872;4.460;2023-04-01T04:13:28;99577.81;;;9.03;100.00
74594;BME280;63097;51.872;4.460;2023-04-01T04:15:53;99576.13;;;8.97;100.00
74594;BME280;63097;51.872;4.460;2023-04-01T04:18:19;99591.69;;;9.03;100.00
74594;BME280;63097;51.872;4.460;2023-04-01T04:20:45;99588.06;;;9.03;100.00
74594;BME280;63097;51.872;4.460;2023-04-01T04:23:10;99595.59;;;9.07;100.00
74594;BME280;63097;51.872;4.460;2023-04-01T04:25:35;99598.06;;;9.04;100.00
74594;BME280;63097;51.872;4.460;2023-04-01T04:28:01;99604.69;;;8.98;100.00
74594;BME280;63097;51.872;4.460;2023-04-01T04:30:26;99607.47;;;9.03;100.00
74594;BME280;63097;51.872;4.460;2023-04-01T04:32:51;99604.72;;;9.03;100.00
74594;BME280;63097;51.872;4.460;2023-04-01T04:35:17;99612.78;;;9.09;100.00
74594;BME280;63097;51.872;4.460;2023-04-01T04:37:42;99611.94;;;9.04;100.00
74594;BME280;63097;51.872;4.460;2023-04-01T04:40:07;99618.28;;;8.99;100.00
74594;BME280;63097;51.872;4.460;2023-04-01T04:42:33;99625.25;;;9.07;100.00
74594;BME280;63097;51.872;4.460;2023-04-01T04:44:58;99623.56;;;9.01;100.00
74594;BME280;63097;51.872;4.460;2023-04-01T04:47:23;99623.88;;;9.04;100.00
74594;BME280;63097;51.872;4.460;2023-04-01T04:49:49;99628.56;;;8.99;100.00
74594;BME280;63097;51.872;4.460;2023-04-01T04:52:14;99649.38;;;9.06;100.00
74594;BME280;63097;51.872;4.460;2023-04-01T04:54:39;99642.16;;;9.05;100.00
74594;BME280;63097;51.872;4.460;2023-04-01T04:57:05;99649.94;;;9.08;100.00
74594;BME280;63097;51.872;4.460;2023-04-01T04:59:30;99652.41;;;9.00;100.00
74594;BME280;63097;51.872;4.460;2023-04-01T05:01:56;99657.69;;;9.01;100.00
74594;BME280;63097;51.872;4.460;2023-04-01T05:04:21;99661.00;;;8.98;100.00
74594;BME280;63097;51.872;4.460;2023-04-01T05:06:46;99665.16;;;9.01;100.00
74594;BME280;63097;51.872;4.460;2023-04-01T05:09:12;99665.16;;;9.01;100.00
74594;BME280;63097;51.872;4.460;2023-04-01T05:11:37;99668.19;;;8.94;100.00
74594;BME280;63097;51.872;4.460;2023-04-01T05:14:02;99679.56;;;8.93;100.00
74594;BME280;63097;51.872;4.460;2023-04-01T05:16:28;99682.91;;;8.95;100.00
74594;BME280;63097;51.872;4.460;2023-04-01T05:18:53;99680.69;;;8.97;100.00
74594;BME280;63097;51.872;4.460;2023-04-01T05:21:18;99688.19;;;8.96;100.00
74594;BME280;63097;51.872;4.460;2023-04-01T05:23:44;99690.69;;;8.98;100.00
74594;BME280;63097;51.872;4.460;2023-04-01T05:26:12;99697.56;;;8.90;100.00
74594;BME280;63097;51.872;4.460;2023-04-01T05:28:38;99700.91;;;8.87;100.00
74594;BME280;63097;51.872;4.460;2023-04-01T05:31:04;99704.75;;;8.86;100.00
74594;BME280;63097;51.872;4.460;2023-04-01T05:33:30;99703.66;;;8.87;100.00
74594;BME280;63097;51.872;4.460;2023-04-01T05:35:56;99713.91;;;8.87;100.00
74594;BME280;63097;51.872;4.460;2023-04-01T05:38:21;99718.91;;;8.85;100.00
74594;BME280;63097;51.872;4.460;2023-04-01T05:40:47;99723.06;;;8.87;100.00
74594;BME280;63097;51.872;4.460;2023-04-01T05:43:12;99727.25;;;8.90;100.00
74594;BME280;63097;51.872;4.460;2023-04-01T05:45:38;99722.81;;;8.89;100.00
74594;BME280;63097;51.872;4.460;2023-04-01T05:48:03;99741.13;;;8.90;100.00
74594;BME280;63097;51.872;4.460;2023-04-01T05:50:29;99745.56;;;8.91;100.00
74594;BME280;63097;51.872;4.460;2023-04-01T05:52:54;99754.44;;;8.93;100.00
74594;BME280;63097;51.872;4.460;2023-04-01T05:55:20;99750.63;;;8.99;100.00
74594;BME280;63097;51.872;4.460;2023-04-01T05:57:46;99752.25;;;8.95;100.00
74594;BME280;63097;51.872;4.460;2023-04-01T06:00:12;99755.03;;;8.95;100.00
74594;BME280;63097;51.872;4.460;2023-04-01T06:02:38;99767.53;;;9.02;100.00
74594;BME280;63097;51.872;4.460;2023-04-01T06:05:24;99773.63;;;8.99;100.00
74594;BME280;63097;51.872;4.460;2023-04-01T06:07:58;99782.22;;;8.98;100.00
74594;BME280;63097;51.872;4.460;2023-04-01T06:10:44;99791.09;;;9.00;100.00
74594;BME280;63097;51.872;4.460;2023-04-01T06:13:22;99795.50;;;8.96;100.00
74594;BME280;63097;51.872;4.460;2023-04-01T06:16:07;99788.03;;;8.96;100.00
74594;BME280;63097;51.872;4.460;2023-04-01T06:19:00;99795.19;;;8.92;100.00
74594;BME280;63097;51.872;4.460;2023-04-01T06:26:43;99804.06;;;8.89;100.00
74594;BME280;63097;51.872;4.460;2023-04-01T06:51:36;99828.72;;;8.86;99.79
74594;BME280;63097;51.872;4.460;2023-04-01T06:54:27;99843.97;;;8.88;100.00
74594;BME280;63097;51.872;4.460;2023-04-01T06:56:59;99834.59;;;8.94;100.00
74594;BME280;63097;51.872;4.460;2023-04-01T06:59:33;99849.03;;;8.91;99.86
74594;BME280;63097;51.872;4.460;2023-04-01T07:04:41;99849.59;;;8.93;99.56
74594;BME280;63097;51.872;4.460;2023-04-01T07:07:16;99850.13;;;8.95;99.40
74594;BME280;63097;51.872;4.460;2023-04-01T07:09:50;99857.41;;;9.01;98.78
74594;BME280;63097;51.872;4.460;2023-04-01T07:12:33;99860.16;;;9.01;99.08
74594;BME280;63097;51.872;4.460;2023-04-01T07:15:11;99859.13;;;9.07;99.09
74594;BME280;63097;51.872;4.460;2023-04-01T07:17:42;99869.94;;;9.09;98.92
74594;BME280;63097;51.872;4.460;2023-04-01T07:20:20;99867.97;;;9.04;98.87
74594;BME280;63097;51.872;4.460;2023-04-01T07:22:53;99874.13;;;9.11;98.37
74594;BME280;63097;51.872;4.460;2023-04-01T07:25:25;99882.47;;;9.17;98.11
74594;BME280;63097;51.872;4.460;2023-04-01T07:27:53;99877.72;;;9.12;98.34
74594;BME280;63097;51.872;4.460;2023-04-01T07:30:23;99886.91;;;9.18;98.16
74594;BME280;63097;51.872;4.460;2023-04-01T07:35:44;99895.00;;;9.19;97.76
74594;BME280;63097;51.872;4.460;2023-04-01T07:40:52;99902.78;;;9.22;98.27
74594;BME280;63097;51.872;4.460;2023-04-01T07:48:33;99912.66;;;9.08;98.79
74594;BME280;63097;51.872;4.460;2023-04-01T07:56:32;99916.34;;;9.19;99.84
74594;BME280;63097;51.872;4.460;2023-04-01T08:05:28;99937.44;;;9.20;98.61
74594;BME280;63097;51.872;4.460;2023-04-01T08:08:06;99951.00;;;9.16;98.69
74594;BME280;63097;51.872;4.460;2023-04-01T08:11:08;99944.69;;;9.26;98.85
74594;BME280;63097;51.872;4.460;2023-04-01T08:13:46;99942.69;;;9.21;98.89
74594;BME280;63097;51.872;4.460;2023-04-01T08:19:44;99947.44;;;9.21;98.43
74594;BME280;63097;51.872;4.460;2023-04-01T08:25:02;99969.06;;;9.19;98.99
74594;BME280;63097;51.872;4.460;2023-04-01T08:27:39;99961.81;;;9.18;99.12
74594;BME280;63097;51.872;4.460;2023-04-01T08:32:53;99974.34;;;9.20;98.40
74594;BME280;63097;51.872;4.460;2023-04-01T08:35:34;99977.75;;;9.32;98.63
74594;BME280;63097;51.872;4.460;2023-04-01T08:40:59;99980.28;;;9.34;98.75
74594;BME280;63097;51.872;4.460;2023-04-01T08:43:31;99992.44;;;9.28;98.17
74594;BME280;63097;51.872;4.460;2023-04-01T08:52:03;99988.94;;;9.42;97.15
74594;BME280;63097;51.872;4.460;2023-04-01T08:56:58;100002.81;;;9.42;98.17
74594;BME280;63097;51.872;4.460;2023-04-01T09:05:42;100012.16;;;9.63;97.96
74594;BME280;63097;51.872;4.460;2023-04-01T09:16:35;100030.25;;;9.70;97.44
74594;BME280;63097;51.872;4.460;2023-04-01T09:19:28;100031.31;;;9.64;96.83
74594;BME280;63097;51.872;4.460;2023-04-01T09:39:02;100047.88;;;9.91;95.87
74594;BME280;63097;51.872;4.460;2023-04-01T09:41:36;100051.13;;;9.78;96.19
74594;BME280;63097;51.872;4.460;2023-04-01T09:44:12;100050.94;;;9.94;96.40
74594;BME280;63097;51.872;4.460;2023-04-01T09:59:49;100071.19;;;9.85;95.54
74594;BME280;63097;51.872;4.460;2023-04-01T10:25:04;100094.53;;;9.89;96.74
74594;BME280;63097;51.872;4.460;2023-04-01T10:36:25;100106.63;;;9.73;98.68
74594;BME280;63097;51.872;4.460;2023-04-01T11:20:10;100146.50;;;9.88;96.23
74594;BME280;63097;51.872;4.460;2023-04-01T11:23:12;100150.44;;;9.92;96.53
74594;BME280;63097;51.872;4.460;2023-04-01T11:31:26;100153.56;;;10.38;95.64
74594;BME280;63097;51.872;4.460;2023-04-01T11:34:35;100158.59;;;10.46;94.55
74594;BME280;63097;51.872;4.460;2023-04-01T11:37:28;100160.25;;;10.42;95.33
74594;BME280;63097;51.872;4.460;2023-04-01T11:43:11;100169.78;;;10.14;95.41
74594;BME280;63097;51.872;4.460;2023-04-01T11:46:03;100173.56;;;10.03;95.47
74594;BME280;63097;51.872;4.460;2023-04-01T11:55:06;100188.09;;;10.10;96.06
74594;BME280;63097;51.872;4.460;2023-04-01T12:00:26;100189.56;;;10.18;95.18
74594;BME280;63097;51.872;4.460;2023-04-01T12:09:40;100209.44;;;9.78;96.79
74594;BME280;63097;51.872;4.460;2023-04-01T12:12:16;100205.88;;;9.82;97.60
74594;BME280;63097;51.872;4.460;2023-04-01T12:15:02;100206.00;;;9.92;97.95
74594;BME280;63097;51.872;4.460;2023-04-01T12:17:39;100211.84;;;9.96;96.67
74594;BME280;63097;51.872;4.460;2023-04-01T12:39:20;100232.41;;;10.22;95.11
74594;BME280;63097;51.872;4.460;2023-04-01T12:42:10;100232.25;;;10.38;95.55
74594;BME280;63097;51.872;4.460;2023-04-01T12:47:35;100243.13;;;10.45;94.76
74594;BME280;63097;51.872;4.460;2023-04-01T12:55:52;100252.47;;;10.29;94.67
74594;BME280;63097;51.872;4.460;2023-04-01T12:59:00;100257.00;;;10.40;95.08
74594;BME280;63097;51.872;4.460;2023-04-01T13:01:44;100250.72;;;10.23;93.85
74594;BME280;63097;51.872;4.460;2023-04-01T13:04:37;100263.31;;;10.30;94.60
74594;BME280;63097;51.872;4.460;2023-04-01T13:15:16;100266.66;;;10.32;94.61
74594;BME280;63097;51.872;4.460;2023-04-01T13:21:15;100279.69;;;10.27;94.81
74594;BME280;63097;51.872;4.460;2023-04-01T13:29:33;100296.56;;;10.20;94.48
74594;BME280;63097;51.872;4.460;2023-04-01T13:46:09;100304.00;;;10.14;94.85
74594;BME280;63097;51.872;4.460;2023-04-01T14:00:35;100320.38;;;10.38;93.71
74594;BME280;63097;51.872;4.460;2023-04-01T14:14:10;100332.25;;;10.60;93.05
74594;BME280;63097;51.872;4.460;2023-04-01T14:16:56;100327.75;;;10.54;92.77
74594;BME280;63097;51.872;4.460;2023-04-01T14:19:33;100339.91;;;10.48;92.52
74594;BME280;63097;51.872;4.460;2023-04-01T14:22:42;100339.88;;;10.43;92.68
74594;BME280;63097;51.872;4.460;2023-04-01T14:31:25;100356.91;;;10.51;93.15
74594;BME280;63097;51.872;4.460;2023-04-01T14:34:11;100351.41;;;10.56;92.15
74594;BME280;63097;51.872;4.460;2023-04-01T14:47:54;100376.16;;;10.58;90.75
74594;BME280;63097;51.872;4.460;2023-04-01T14:50:23;100385.56;;;10.52;92.59
74594;BME280;63097;51.872;4.460;2023-04-01T14:52:57;100384.47;;;10.53;92.65
74594;BME280;63097;51.872;4.460;2023-04-01T14:55:36;100393.06;;;10.51;92.26
74594;BME280;63097;51.872;4.460;2023-04-01T14:58:17;100396.59;;;10.42;93.23
74594;BME280;63097;51.872;4.460;2023-04-01T15:01:07;100400.66;;;10.61;92.44
74594;BME280;63097;51.872;4.460;2023-04-01T15:03:45;100399.78;;;10.55;92.60
74594;BME280;63097;51.872;4.460;2023-04-01T15:14:44;100398.38;;;10.84;91.20
74594;BME280;63097;51.872;4.460;2023-04-01T15:17:45;100408.75;;;10.62;92.15
74594;BME280;63097;51.872;4.460;2023-04-01T15:20:31;100414.69;;;10.44;92.81
74594;BME280;63097;51.872;4.460;2023-04-01T15:37:08;100443.47;;;10.33;95.80
74594;BME280;63097;51.872;4.460;2023-04-01T15:42:23;100446.47;;;10.27;97.45
74594;BME280;63097;51.872;4.460;2023-04-01T15:45:13;100450.41;;;10.09;97.64
74594;BME280;63097;51.872;4.460;2023-04-01T15:48:06;100461.94;;;10.18;97.83
74594;BME280;63097;51.872;4.460;2023-04-01T15:50:48;100464.88;;;10.11;97.74
74594;BME280;63097;51.872;4.460;2023-04-01T16:01:35;100466.84;;;10.10;98.80
74594;BME280;63097;51.872;4.460;2023-04-01T16:07:04;100482.16;;;10.13;99.16
74594;BME280;63097;51.872;4.460;2023-04-01T16:09:48;100484.47;;;10.21;98.59
74594;BME280;63097;51.872;4.460;2023-04-01T16:20:23;100510.25;;;10.17;98.87
74594;BME280;63097;51.872;4.460;2023-04-01T16:23:02;100516.59;;;10.12;99.10
74594;BME280;63097;51.872;4.460;2023-04-01T16:25:51;100520.03;;;10.19;99.46
74594;BME280;63097;51.872;4.460;2023-04-01T16:28:29;100523.75;;;10.08;98.93
74594;BME280;63097;51.872;4.460;2023-04-01T16:31:16;100527.63;;;10.07;99.11
74594;BME280;63097;51.872;4.460;2023-04-01T16:37:03;100536.66;;;9.97;100.00
74594;BME280;63097;51.872;4.460;2023-04-01T16:42:26;100541.75;;;10.05;99.79
74594;BME280;63097;51.872;4.460;2023-04-01T16:47:38;100545.00;;;9.97;100.00
74594;BME280;63097;51.872;4.460;2023-04-01T16:50:27;100555.78;;;10.10;100.00
74594;BME280;63097;51.872;4.460;2023-04-01T16:53:08;100558.56;;;10.10;100.00
74594;BME280;63097;51.872;4.460;2023-04-01T16:55:50;100567.81;;;10.16;99.78
74594;BME280;63097;51.872;4.460;2023-04-01T16:58:25;100572.09;;;10.07;99.84
74594;BME280;63097;51.872;4.460;2023-04-01T17:01:04;100587.28;;;9.99;99.21
74594;BME280;63097;51.872;4.460;2023-04-01T17:03:43;100588.03;;;9.95;99.60
74594;BME280;63097;51.872;4.460;2023-04-01T17:11:47;100607.66;;;9.88;99.85
74594;BME280;63097;51.872;4.460;2023-04-01T17:17:31;100617.41;;;9.74;100.00
74594;BME280;63097;51.872;4.460;2023-04-01T17:20:05;100619.13;;;9.75;100.00
74594;BME280;63097;51.872;4.460;2023-04-01T17:25:20;100637.03;;;9.68;99.55
74594;BME280;63097;51.872;4.460;2023-04-01T17:31:01;100646.09;;;9.80;99.52
74594;BME280;63097;51.872;4.460;2023-04-01T17:35:58;100658.91;;;9.64;99.54
74594;BME280;63097;51.872;4.460;2023-04-01T17:44:02;100676.44;;;9.65;99.68
74594;BME280;63097;51.872;4.460;2023-04-01T17:57:48;100703.25;;;9.59;98.87
74594;BME280;63097;51.872;4.460;2023-04-01T18:03:35;100716.63;;;9.62;98.69
74594;BME280;63097;51.872;4.460;2023-04-01T18:06:19;100720.53;;;9.61;98.38
74594;BME280;63097;51.872;4.460;2023-04-01T18:09:02;100724.63;;;9.59;97.95
74594;BME280;63097;51.872;4.460;2023-04-01T18:17:25;100744.38;;;9.46;98.38
74594;BME280;63097;51.872;4.460;2023-04-01T18:22:41;100743.69;;;9.39;98.76
74594;BME280;63097;51.872;4.460;2023-04-01T18:25:32;100777.00;;;9.39;99.01
74594;BME280;63097;51.872;4.460;2023-04-01T18:30:29;100786.63;;;9.48;98.35
74594;BME280;63097;51.872;4.460;2023-04-01T18:33:03;100792.06;;;9.43;98.31
74594;BME280;63097;51.872;4.460;2023-04-01T18:38:31;100807.91;;;9.31;99.26
74594;BME280;63097;51.872;4.460;2023-04-01T18:41:12;100813.69;;;9.29;99.09
74594;BME280;63097;51.872;4.460;2023-04-01T18:49:53;100837.63;;;9.19;99.13
74594;BME280;63097;51.872;4.460;2023-04-01T18:52:33;100844.63;;;9.09;98.80
74594;BME280;63097;51.872;4.460;2023-04-01T18:57:50;100858.88;;;9.01;98.98
74594;BME280;63097;51.872;4.460;2023-04-01T19:03:00;100869.72;;;9.03;98.26
74594;BME280;63097;51.872;4.460;2023-04-01T19:05:31;100870.72;;;8.97;98.46
74594;BME280;63097;51.872;4.460;2023-04-01T19:11:40;100874.66;;;9.01;97.60
74594;BME280;63097;51.872;4.460;2023-04-01T19:14:39;100881.44;;;8.93;97.44
74594;BME280;63097;51.872;4.460;2023-04-01T19:17:13;100904.09;;;8.90;97.23
74594;BME280;63097;51.872;4.460;2023-04-01T19:26:27;100917.38;;;8.88;97.80
74594;BME280;63097;51.872;4.460;2023-04-01T19:36:43;100930.38;;;8.76;97.65
74594;BME280;63097;51.872;4.460;2023-04-01T19:42:37;100946.91;;;8.83;96.83
74594;BME280;63097;51.872;4.460;2023-04-01T19:48:00;100954.03;;;8.79;96.73
74594;BME280;63097;51.872;4.460;2023-04-01T19:50:39;100964.16;;;8.85;96.64
74594;BME280;63097;51.872;4.460;2023-04-01T20:04:03;100993.63;;;8.56;97.52
74594;BME280;63097;51.872;4.460;2023-04-01T20:12:34;101002.69;;;8.63;95.39
74594;BME280;63097;51.872;4.460;2023-04-01T20:16:07;101012.81;;;8.58;96.10
74594;BME280;63097;51.872;4.460;2023-04-01T20:18:16;101010.28;;;8.56;96.19
74594;BME280;63097;51.872;4.460;2023-04-01T20:20:57;101020.50;;;8.56;96.24
74594;BME280;63097;51.872;4.460;2023-04-01T20:23:40;101031.03;;;8.65;95.72
74594;BME280;63097;51.872;4.460;2023-04-01T20:26:12;101040.66;;;8.63;95.60
74594;BME280;63097;51.872;4.460;2023-04-01T20:31:23;101045.22;;;8.57;95.58
74594;BME280;63097;51.872;4.460;2023-04-01T20:37:23;101065.66;;;8.45;95.57
74594;BME280;63097;51.872;4.460;2023-04-01T20:40:12;101068.81;;;8.48;95.69
74594;BME280;63097;51.872;4.460;2023-04-01T20:42:55;101083.38;;;8.44;96.35
74594;BME280;63097;51.872;4.460;2023-04-01T20:53:20;101091.47;;;8.45;94.67
74594;BME280;63097;51.872;4.460;2023-04-01T20:58:21;101106.56;;;8.31;94.63
74594;BME280;63097;51.872;4.460;2023-04-01T21:17:22;101138.00;;;8.18;94.54
74594;BME280;63097;51.872;4.460;2023-04-01T21:19:58;101151.41;;;8.03;94.83
74594;BME280;63097;51.872;4.460;2023-04-01T21:31:02;101176.16;;;7.98;93.51
74594;BME280;63097;51.872;4.460;2023-04-01T21:33:33;101186.22;;;7.93;94.21
74594;BME280;63097;51.872;4.460;2023-04-01T21:39:22;101188.09;;;7.99;92.93
74594;BME280;63097;51.872;4.460;2023-04-01T21:44:14;101208.84;;;7.90;93.97
74594;BME280;63097;51.872;4.460;2023-04-01T21:50:19;101213.53;;;7.89;92.62
74594;BME280;63097;51.872;4.460;2023-04-01T21:53:25;101230.53;;;7.93;91.78
74594;BME280;63097;51.872;4.460;2023-04-01T21:59:33;101228.00;;;7.67;92.83
74594;BME280;63097;51.872;4.460;2023-04-01T22:02:20;101237.97;;;7.74;92.79
74594;BME280;63097;51.872;4.460;2023-04-01T22:07:23;101253.31;;;7.70;93.40
74594;BME280;63097;51.872;4.460;2023-04-01T22:18:33;101271.75;;;7.52;93.30
74594;BME280;63097;51.872;4.460;2023-04-01T22:21:13;101268.75;;;7.53;93.21
74594;BME280;63097;51.872;4.460;2023-04-01T22:24:11;101280.06;;;7.52;93.34
74594;BME280;63097;51.872;4.460;2023-04-01T22:29:31;101285.44;;;7.47;93.52
74594;BME280;63097;51.872;4.460;2023-04-01T22:32:06;101289.25;;;7.46;94.10
74594;BME280;63097;51.872;4.460;2023-04-01T22:34:49;101285.66;;;7.45;93.35
74594;BME280;63097;51.872;4.460;2023-04-01T22:37:30;101304.41;;;7.43;92.76
74594;BME280;63097;51.872;4.460;2023-04-01T22:40:23;101305.03;;;7.39;92.01
74594;BME280;63097;51.872;4.460;2023-04-01T22:42:57;101310.75;;;7.44;92.47
74594;BME280;63097;51.872;4.460;2023-04-01T22:45:44;101314.03;;;7.34;92.85
74594;BME280;63097;51.872;4.460;2023-04-01T22:50:58;101320.63;;;7.33;92.56
74594;BME280;63097;51.872;4.460;2023-04-01T22:56:15;101341.28;;;7.31;93.04
74594;BME280;63097;51.872;4.460;2023-04-01T22:59:24;101342.97;;;7.32;93.09
74594;BME280;63097;51.872;4.460;2023-04-01T23:01:45;101343.44;;;7.29;92.96